Private Wetterstation Sandau
Wetterdaten: Sonntag, 29.04.2012
Datum Zeit Temp. A. Feuchte A. Luftdruck Regen Wind Richtung Richtung Taupunkt Windchill
29.04.2012 00:01 17,9 C 68 % 1012,8 hPa 0,0 l/m 0,0 km/h (0 Bft) O 90 11,9 C 17,9 C
29.04.2012 00:06 17,8 C 68 % 1012,8 hPa 0,0 l/m 3,6 km/h (1 Bft) O 90 11,8 C 17,8 C
29.04.2012 00:11 17,6 C 69 % 1012,8 hPa 0,0 l/m 12,2 km/h (2 Bft) O-SO 112 11,8 C 17,6 C
29.04.2012 00:16 17,5 C 69 % 1012,7 hPa 0,0 l/m 4,0 km/h (1 Bft) O-NO 67 11,7 C 17,5 C
29.04.2012 00:21 17,5 C 69 % 1012,6 hPa 0,0 l/m 2,9 km/h (1 Bft) O-SO 112 11,7 C 17,5 C
29.04.2012 00:26 17,4 C 69 % 1012,5 hPa 0,0 l/m 6,5 km/h (2 Bft) O-SO 112 11,7 C 17,4 C
29.04.2012 00:31 17,3 C 69 % 1012,5 hPa 0,0 l/m 5,0 km/h (1 Bft) O-SO 112 11,6 C 17,3 C
29.04.2012 00:36 17,3 C 70 % 1012,5 hPa 0,0 l/m 4,0 km/h (1 Bft) NO 45 11,8 C 17,3 C
29.04.2012 00:41 17,1 C 70 % 1012,3 hPa 0,0 l/m 4,7 km/h (1 Bft) O-NO 67 11,6 C 17,1 C
29.04.2012 00:46 17,1 C 70 % 1012,2 hPa 0,0 l/m 6,1 km/h (2 Bft) O-SO 112 11,6 C 17,1 C
29.04.2012 00:51 17,0 C 71 % 1012,1 hPa 0,0 l/m 7,6 km/h (2 Bft) O 90 11,7 C 17,0 C
29.04.2012 00:56 16,9 C 71 % 1012,0 hPa 0,0 l/m 5,4 km/h (1 Bft) O 90 11,6 C 16,9 C
29.04.2012 01:01 16,8 C 71 % 1011,8 hPa 0,0 l/m 9,4 km/h (2 Bft) O 90 11,5 C 16,8 C
29.04.2012 01:06 16,8 C 71 % 1011,8 hPa 0,0 l/m 12,2 km/h (2 Bft) O 90 11,5 C 16,8 C
29.04.2012 01:11 16,6 C 71 % 1011,8 hPa 0,0 l/m 11,2 km/h (2 Bft) O-NO 67 11,3 C 16,6 C
29.04.2012 01:16 16,6 C 72 % 1011,7 hPa 0,0 l/m 6,5 km/h (2 Bft) O-NO 67 11,5 C 16,6 C
29.04.2012 01:21 16,5 C 72 % 1011,7 hPa 0,0 l/m 5,8 km/h (2 Bft) O-NO 67 11,4 C 16,5 C
29.04.2012 01:26 16,4 C 72 % 1011,7 hPa 0,0 l/m 6,8 km/h (2 Bft) O 90 11,3 C 16,4 C
29.04.2012 01:31 16,3 C 72 % 1011,6 hPa 0,0 l/m 8,6 km/h (2 Bft) O-NO 67 11,2 C 16,3 C
29.04.2012 01:36 16,2 C 73 % 1011,5 hPa 0,0 l/m 10,4 km/h (2 Bft) O 90 11,4 C 16,2 C
29.04.2012 01:41 16,1 C 73 % 1011,5 hPa 0,0 l/m 13,3 km/h (3 Bft) O 90 11,3 C 16,1 C
29.04.2012 01:46 16,1 C 73 % 1011,4 hPa 0,0 l/m 6,5 km/h (2 Bft) NO 45 11,3 C 16,1 C
29.04.2012 01:51 16,0 C 73 % 1011,4 hPa 0,0 l/m 6,5 km/h (2 Bft) O-NO 67 11,2 C 16,0 C
29.04.2012 01:56 15,9 C 73 % 1011,5 hPa 0,0 l/m 4,0 km/h (1 Bft) O 90 11,1 C 15,9 C
29.04.2012 02:01 15,9 C 73 % 1011,3 hPa 0,0 l/m 11,5 km/h (2 Bft) O-NO 67 11,1 C 15,9 C
29.04.2012 02:06 15,8 C 73 % 1011,2 hPa 0,0 l/m 5,8 km/h (2 Bft) O-NO 67 11,0 C 15,8 C
29.04.2012 02:11 15,7 C 73 % 1011,1 hPa 0,0 l/m 4,7 km/h (1 Bft) O 90 10,9 C 15,7 C
29.04.2012 02:16 15,6 C 73 % 1011,1 hPa 0,0 l/m 9,0 km/h (2 Bft) O 90 10,8 C 15,6 C
29.04.2012 02:21 15,6 C 73 % 1011,1 hPa 0,0 l/m 4,7 km/h (1 Bft) SO 135 10,8 C 15,6 C
29.04.2012 02:26 15,5 C 73 % 1010,9 hPa 0,0 l/m 4,3 km/h (1 Bft) O 90 10,7 C 15,5 C
29.04.2012 02:31 15,4 C 74 % 1010,9 hPa 0,0 l/m 6,5 km/h (2 Bft) O-NO 67 10,8 C 15,4 C
29.04.2012 02:36 15,3 C 74 % 1010,9 hPa 0,0 l/m 4,7 km/h (1 Bft) O 90 10,7 C 15,3 C
29.04.2012 02:41 15,3 C 74 % 1010,7 hPa 0,0 l/m 4,0 km/h (1 Bft) O-NO 67 10,7 C 15,3 C
29.04.2012 02:46 15,2 C 74 % 1010,6 hPa 0,0 l/m 6,1 km/h (2 Bft) O-NO 67 10,6 C 15,2 C
29.04.2012 02:51 15,1 C 74 % 1010,6 hPa 0,0 l/m 7,6 km/h (2 Bft) O-NO 67 10,5 C 15,1 C
29.04.2012 02:56 15,2 C 74 % 1010,7 hPa 0,0 l/m 6,1 km/h (2 Bft) O 90 10,6 C 15,2 C
29.04.2012 03:01 15,2 C 74 % 1010,7 hPa 0,0 l/m 6,1 km/h (2 Bft) O 90 10,6 C 15,2 C
29.04.2012 03:06 15,3 C 73 % 1010,6 hPa 0,0 l/m 5,4 km/h (1 Bft) O-NO 67 10,5 C 15,3 C
29.04.2012 03:11 15,3 C 73 % 1010,6 hPa 0,0 l/m 4,0 km/h (1 Bft) O-SO 112 10,5 C 15,3 C
29.04.2012 03:16 15,3 C 73 % 1010,6 hPa 0,0 l/m 7,6 km/h (2 Bft) O-NO 67 10,5 C 15,3 C
29.04.2012 03:21 15,2 C 73 % 1010,6 hPa 0,0 l/m 4,0 km/h (1 Bft) O-NO 67 10,4 C 15,2 C
29.04.2012 03:26 15,2 C 73 % 1010,5 hPa 0,0 l/m 0,0 km/h (0 Bft) NO 45 10,4 C 15,2 C
29.04.2012 03:31 15,1 C 73 % 1010,5 hPa 0,0 l/m 4,3 km/h (1 Bft) O-NO 67 10,3 C 15,1 C
29.04.2012 03:36 14,9 C 73 % 1010,4 hPa 0,0 l/m 4,3 km/h (1 Bft) NO 45 10,1 C 14,9 C
29.04.2012 03:41 14,9 C 73 % 1010,4 hPa 0,0 l/m 5,0 km/h (1 Bft) NO 45 10,1 C 14,9 C
29.04.2012 03:46 14,9 C 74 % 1010,3 hPa 0,0 l/m 3,6 km/h (1 Bft) O-NO 67 10,3 C 14,9 C
29.04.2012 03:51 14,9 C 74 % 1010,2 hPa 0,0 l/m 5,4 km/h (1 Bft) O 90 10,3 C 14,9 C
29.04.2012 03:56 14,8 C 74 % 1010,2 hPa 0,0 l/m 3,6 km/h (1 Bft) O-NO 67 10,2 C 14,8 C
29.04.2012 04:01 14,7 C 74 % 1010,2 hPa 0,0 l/m 2,5 km/h (1 Bft) O-SO 112 10,1 C 14,7 C
29.04.2012 04:06 14,6 C 74 % 1010,2 hPa 0,0 l/m 3,2 km/h (1 Bft) O 90 10,0 C 14,6 C
29.04.2012 04:11 14,5 C 73 % 1010,0 hPa 0,0 l/m 2,9 km/h (1 Bft) O-NO 67 9,7 C 14,5 C
29.04.2012 04:16 14,4 C 74 % 1010,0 hPa 0,0 l/m 7,6 km/h (2 Bft) O-SO 112 9,8 C 14,4 C
29.04.2012 04:21 14,3 C 74 % 1009,9 hPa 0,0 l/m 4,0 km/h (1 Bft) O-NO 67 9,7 C 14,3 C
29.04.2012 04:26 14,2 C 74 % 1009,9 hPa 0,0 l/m 3,6 km/h (1 Bft) O-NO 67 9,6 C 14,2 C
29.04.2012 04:31 14,1 C 74 % 1009,7 hPa 0,0 l/m 8,6 km/h (2 Bft) O 90 9,5 C 14,1 C
29.04.2012 04:36 14,1 C 74 % 1009,9 hPa 0,0 l/m 6,8 km/h (2 Bft) O-NO 67 9,5 C 14,1 C
29.04.2012 04:41 14,1 C 74 % 1009,6 hPa 0,0 l/m 10,1 km/h (2 Bft) O 90 9,5 C 14,1 C
29.04.2012 04:46 14,0 C 74 % 1009,5 hPa 0,0 l/m 6,1 km/h (2 Bft) O 90 9,4 C 14,0 C
29.04.2012 04:51 13,9 C 75 % 1009,4 hPa 0,0 l/m 5,4 km/h (1 Bft) O-NO 67 9,5 C 13,9 C
29.04.2012 04:56 13,9 C 75 % 1009,4 hPa 0,0 l/m 5,0 km/h (1 Bft) O-SO 112 9,5 C 13,9 C
29.04.2012 05:01 13,9 C 75 % 1009,4 hPa 0,0 l/m 5,0 km/h (1 Bft) O 90 9,5 C 13,9 C
29.04.2012 05:06 13,9 C 75 % 1009,5 hPa 0,0 l/m 2,5 km/h (1 Bft) O 90 9,5 C 13,9 C
29.04.2012 05:11 13,8 C 75 % 1009,3 hPa 0,0 l/m 3,6 km/h (1 Bft) O 90 9,4 C 13,8 C
29.04.2012 05:16 13,8 C 75 % 1009,3 hPa 0,0 l/m 1,8 km/h (1 Bft) O-NO 67 9,4 C 13,8 C
29.04.2012 05:21 13,8 C 75 % 1009,1 hPa 0,0 l/m 4,3 km/h (1 Bft) O-SO 112 9,4 C 13,8 C
29.04.2012 05:26 13,6 C 75 % 1009,3 hPa 0,0 l/m 7,2 km/h (2 Bft) O-NO 67 9,3 C 13,6 C
29.04.2012 05:31 13,6 C 75 % 1009,1 hPa 0,0 l/m 5,0 km/h (1 Bft) O-NO 67 9,3 C 13,6 C
29.04.2012 05:36 13,4 C 76 % 1009,1 hPa 0,0 l/m 7,6 km/h (2 Bft) O 90 9,3 C 13,4 C
29.04.2012 05:41 13,3 C 76 % 1008,8 hPa 0,0 l/m 8,3 km/h (2 Bft) O 90 9,2 C 13,3 C
29.04.2012 05:46 13,3 C 76 % 1008,9 hPa 0,0 l/m 8,3 km/h (2 Bft) O-NO 67 9,2 C 13,3 C
29.04.2012 05:51 13,2 C 76 % 1008,8 hPa 0,0 l/m 4,7 km/h (1 Bft) O 90 9,1 C 13,2 C
29.04.2012 05:56 13,2 C 76 % 1008,7 hPa 0,0 l/m 13,7 km/h (3 Bft) O-SO 112 9,1 C 13,2 C
29.04.2012 06:01 13,2 C 76 % 1008,8 hPa 0,0 l/m 14,4 km/h (3 Bft) O 90 9,1 C 13,2 C
29.04.2012 06:06 13,2 C 76 % 1008,9 hPa 0,0 l/m 11,9 km/h (2 Bft) O-SO 112 9,1 C 13,2 C
29.04.2012 06:11 13,3 C 76 % 1008,8 hPa 0,0 l/m 13,7 km/h (3 Bft) NO 45 9,2 C 13,3 C
29.04.2012 06:16 13,3 C 76 % 1008,7 hPa 0,0 l/m 4,0 km/h (1 Bft) O-NO 67 9,2 C 13,3 C
29.04.2012 06:21 13,2 C 76 % 1008,8 hPa 0,0 l/m 9,4 km/h (2 Bft) O-SO 112 9,1 C 13,2 C
29.04.2012 06:26 13,2 C 76 % 1008,8 hPa 0,0 l/m 7,2 km/h (2 Bft) O 90 9,1 C 13,2 C
29.04.2012 06:31 13,2 C 76 % 1008,9 hPa 0,0 l/m 3,6 km/h (1 Bft) O-SO 112 9,1 C 13,2 C
29.04.2012 06:36 13,3 C 76 % 1009,0 hPa 0,0 l/m 5,4 km/h (1 Bft) O-NO 67 9,2 C 13,3 C
29.04.2012 06:41 13,4 C 76 % 1009,0 hPa 0,0 l/m 12,2 km/h (2 Bft) O-NO 67 9,3 C 13,4 C
29.04.2012 06:46 13,4 C 76 % 1009,1 hPa 0,0 l/m 6,1 km/h (2 Bft) NO 45 9,3 C 13,4 C
29.04.2012 06:51 13,5 C 75 % 1009,1 hPa 0,0 l/m 1,4 km/h (1 Bft) O 90 9,2 C 13,5 C
29.04.2012 06:56 13,6 C 75 % 1009,1 hPa 0,0 l/m 5,4 km/h (1 Bft) O-SO 112 9,3 C 13,6 C
29.04.2012 07:01 13,6 C 75 % 1009,1 hPa 0,0 l/m 5,4 km/h (1 Bft) O 90 9,3 C 13,6 C
29.04.2012 07:06 13,6 C 75 % 1009,1 hPa 0,0 l/m 4,7 km/h (1 Bft) O 90 9,3 C 13,6 C
29.04.2012 07:11 13,7 C 75 % 1009,1 hPa 0,0 l/m 9,7 km/h (2 Bft) O-NO 67 9,3 C 13,7 C
29.04.2012 07:16 13,9 C 74 % 1009,1 hPa 0,0 l/m 11,5 km/h (2 Bft) O-NO 67 9,3 C 13,9 C
29.04.2012 07:21 14,0 C 74 % 1009,0 hPa 0,0 l/m 9,7 km/h (2 Bft) O-NO 67 9,4 C 14,0 C
29.04.2012 07:26 14,1 C 74 % 1008,8 hPa 0,0 l/m 8,3 km/h (2 Bft) O 90 9,5 C 14,1 C
29.04.2012 07:31 14,2 C 74 % 1008,8 hPa 0,0 l/m 12,6 km/h (3 Bft) O-NO 67 9,6 C 14,2 C
29.04.2012 07:36 14,3 C 73 % 1008,9 hPa 0,0 l/m 6,8 km/h (2 Bft) O 90 9,5 C 14,3 C
29.04.2012 07:41 14,3 C 73 % 1008,7 hPa 0,0 l/m 9,0 km/h (2 Bft) O-NO 67 9,5 C 14,3 C
29.04.2012 07:46 14,5 C 73 % 1008,7 hPa 0,0 l/m 6,1 km/h (2 Bft) SO 135 9,7 C 14,5 C
29.04.2012 07:51 14,8 C 72 % 1008,7 hPa 0,0 l/m 8,3 km/h (2 Bft) O 90 9,8 C 14,8 C
29.04.2012 07:56 14,9 C 72 % 1008,8 hPa 0,0 l/m 5,0 km/h (1 Bft) O-NO 67 9,9 C 14,9 C
29.04.2012 08:01 15,0 C 71 % 1008,8 hPa 0,0 l/m 10,4 km/h (2 Bft) O 90 9,8 C 15,0 C
29.04.2012 08:06 15,2 C 71 % 1008,9 hPa 0,0 l/m 6,1 km/h (2 Bft) O-SO 112 10,0 C 15,2 C
29.04.2012 08:11 15,2 C 70 % 1008,9 hPa 0,0 l/m 9,4 km/h (2 Bft) NO 45 9,8 C 15,2 C
29.04.2012 08:16 15,3 C 70 % 1008,8 hPa 0,0 l/m 10,4 km/h (2 Bft) O-NO 67 9,9 C 15,3 C
29.04.2012 08:21 15,5 C 70 % 1008,8 hPa 0,0 l/m 8,6 km/h (2 Bft) O-SO 112 10,1 C 15,5 C
29.04.2012 08:26 15,6 C 69 % 1008,8 hPa 0,0 l/m 7,2 km/h (2 Bft) O-NO 67 9,9 C 15,6 C
29.04.2012 08:31 15,6 C 69 % 1008,8 hPa 0,0 l/m 12,6 km/h (3 Bft) O-SO 112 9,9 C 15,6 C
29.04.2012 08:36 15,8 C 69 % 1008,9 hPa 0,0 l/m 16,6 km/h (3 Bft) O-NO 67 10,1 C 15,8 C
29.04.2012 08:41 15,9 C 69 % 1008,8 hPa 0,0 l/m 15,5 km/h (3 Bft) O 90 10,2 C 15,9 C
29.04.2012 08:46 15,9 C 69 % 1008,9 hPa 0,0 l/m 5,0 km/h (1 Bft) O 90 10,2 C 15,9 C
29.04.2012 08:51 16,1 C 69 % 1008,8 hPa 0,0 l/m 6,5 km/h (2 Bft) O-SO 112 10,4 C 16,1 C
29.04.2012 08:56 16,2 C 68 % 1008,8 hPa 0,0 l/m 6,1 km/h (2 Bft) O 90 10,3 C 16,2 C
29.04.2012 09:01 16,4 C 67 % 1008,7 hPa 0,0 l/m 9,4 km/h (2 Bft) O 90 10,3 C 16,4 C
29.04.2012 09:06 16,6 C 67 % 1008,7 hPa 0,0 l/m 8,6 km/h (2 Bft) O 90 10,4 C 16,6 C
29.04.2012 09:11 16,9 C 67 % 1008,7 hPa 0,0 l/m 17,6 km/h (3 Bft) O-NO 67 10,7 C 16,9 C
29.04.2012 09:16 17,1 C 66 % 1008,6 hPa 0,0 l/m 10,8 km/h (2 Bft) O-SO 112 10,7 C 17,1 C
29.04.2012 09:21 17,4 C 66 % 1008,6 hPa 0,0 l/m 10,4 km/h (2 Bft) O 90 11,0 C 17,4 C
29.04.2012 09:26 17,6 C 65 % 1008,4 hPa 0,0 l/m 11,5 km/h (2 Bft) O-SO 112 10,9 C 17,6 C
29.04.2012 09:31 17,8 C 64 % 1008,3 hPa 0,0 l/m 7,6 km/h (2 Bft) O-NO 67 10,9 C 17,8 C
29.04.2012 09:36 17,8 C 65 % 1008,2 hPa 0,0 l/m 23,8 km/h (4 Bft) O-NO 67 11,1 C 17,8 C
29.04.2012 09:41 17,9 C 65 % 1008,2 hPa 0,0 l/m 12,6 km/h (3 Bft) O-NO 67 11,2 C 17,9 C
29.04.2012 09:46 18,1 C 64 % 1008,1 hPa 0,0 l/m 9,4 km/h (2 Bft) O-NO 67 11,2 C 18,1 C
29.04.2012 09:51 18,3 C 63 % 1008,1 hPa 0,0 l/m 10,1 km/h (2 Bft) O 90 11,1 C 18,3 C
29.04.2012 09:56 18,6 C 63 % 1007,9 hPa 0,0 l/m 6,1 km/h (2 Bft) O 90 11,4 C 18,6 C
29.04.2012 10:01 18,8 C 62 % 1007,9 hPa 0,0 l/m 16,9 km/h (3 Bft) O-SO 112 11,4 C 18,8 C
29.04.2012 10:06 18,9 C 63 % 1007,8 hPa 0,0 l/m 5,4 km/h (1 Bft) O 90 11,7 C 18,9 C
29.04.2012 10:11 19,1 C 62 % 1008,0 hPa 0,0 l/m 4,7 km/h (1 Bft) NO 45 11,6 C 19,1 C
29.04.2012 10:16 19,2 C 62 % 1007,7 hPa 0,0 l/m 11,9 km/h (2 Bft) O 90 11,7 C 19,2 C
29.04.2012 10:21 19,1 C 62 % 1007,6 hPa 0,0 l/m 13,7 km/h (3 Bft) O-SO 112 11,6 C 19,1 C
29.04.2012 10:26 19,2 C 62 % 1007,5 hPa 0,0 l/m 12,6 km/h (3 Bft) O-NO 67 11,7 C 19,2 C
29.04.2012 10:31 19,2 C 62 % 1007,6 hPa 0,0 l/m 10,8 km/h (2 Bft) O 90 11,7 C 19,2 C
29.04.2012 10:36 19,4 C 62 % 1007,6 hPa 0,0 l/m 21,2 km/h (4 Bft) O-SO 112 11,9 C 19,4 C
29.04.2012 10:41 19,5 C 62 % 1007,6 hPa 0,0 l/m 6,1 km/h (2 Bft) O-NO 67 12,0 C 19,5 C
29.04.2012 10:46 19,6 C 62 % 1007,7 hPa 0,0 l/m 6,5 km/h (2 Bft) O 90 12,1 C 19,6 C
29.04.2012 10:51 19,8 C 62 % 1007,8 hPa 0,0 l/m 9,7 km/h (2 Bft) O-SO 112 12,3 C 19,8 C
29.04.2012 10:56 19,8 C 62 % 1007,6 hPa 0,0 l/m 12,6 km/h (3 Bft) O-SO 112 12,3 C 19,8 C
29.04.2012 11:01 19,9 C 62 % 1007,8 hPa 0,0 l/m 5,0 km/h (1 Bft) O-NO 67 12,4 C 19,9 C
29.04.2012 11:06 20,0 C 62 % 1007,8 hPa 0,0 l/m 8,3 km/h (2 Bft) SO 135 12,5 C 20,0 C
29.04.2012 11:11 20,1 C 62 % 1007,8 hPa 0,0 l/m 5,0 km/h (1 Bft) O-NO 67 12,6 C 20,1 C
29.04.2012 11:16 20,3 C 61 % 1007,8 hPa 0,0 l/m 9,0 km/h (2 Bft) O 90 12,5 C 20,3 C
29.04.2012 11:21 20,5 C 61 % 1007,8 hPa 0,0 l/m 20,2 km/h (4 Bft) O 90 12,7 C 20,5 C
29.04.2012 11:26 20,6 C 61 % 1007,8 hPa 0,0 l/m 9,7 km/h (2 Bft) O-NO 67 12,8 C 20,6 C
29.04.2012 11:31 20,8 C 60 % 1007,8 hPa 0,0 l/m 9,4 km/h (2 Bft) O 90 12,7 C 20,8 C
29.04.2012 11:36 20,9 C 61 % 1007,8 hPa 0,0 l/m 8,3 km/h (2 Bft) O 90 13,1 C 20,9 C
29.04.2012 11:41 21,1 C 60 % 1007,7 hPa 0,0 l/m 8,6 km/h (2 Bft) O-NO 67 13,0 C 21,1 C
29.04.2012 11:46 21,2 C 61 % 1007,7 hPa 0,0 l/m 8,6 km/h (2 Bft) O 90 13,4 C 21,2 C
29.04.2012 11:51 21,4 C 61 % 1007,7 hPa 0,0 l/m 16,2 km/h (3 Bft) O-SO 112 13,6 C 21,4 C
29.04.2012 11:56 21,4 C 60 % 1007,5 hPa 0,0 l/m 8,3 km/h (2 Bft) O-NO 67 13,3 C 21,4 C
29.04.2012 12:01 21,5 C 60 % 1007,4 hPa 0,0 l/m 9,7 km/h (2 Bft) O 90 13,4 C 21,5 C
29.04.2012 12:06 21,6 C 60 % 1007,4 hPa 0,0 l/m 6,5 km/h (2 Bft) O-NO 67 13,5 C 21,6 C
29.04.2012 12:11 21,8 C 61 % 1007,4 hPa 0,0 l/m 3,6 km/h (1 Bft) O-SO 112 13,9 C 21,8 C
29.04.2012 12:16 21,8 C 61 % 1007,4 hPa 0,0 l/m 4,0 km/h (1 Bft) O-SO 112 13,9 C 21,8 C
29.04.2012 12:21 21,9 C 61 % 1007,5 hPa 0,0 l/m 5,8 km/h (2 Bft) O-NO 67 14,0 C 21,9 C
29.04.2012 12:26 22,1 C 61 % 1007,6 hPa 0,0 l/m 7,6 km/h (2 Bft) O 90 14,2 C 22,1 C
29.04.2012 12:31 22,2 C 61 % 1007,7 hPa 0,0 l/m 7,9 km/h (2 Bft) O-NO 67 14,3 C 22,2 C
29.04.2012 12:36 22,4 C 59 % 1007,7 hPa 0,0 l/m 6,5 km/h (2 Bft) O-NO 67 14,0 C 22,4 C
29.04.2012 12:41 22,4 C 58 % 1007,7 hPa 0,0 l/m 5,4 km/h (1 Bft) O-NO 67 13,7 C 22,4 C
29.04.2012 12:46 22,5 C 58 % 1007,7 hPa 0,0 l/m 8,3 km/h (2 Bft) O-SO 112 13,8 C 22,5 C
29.04.2012 12:51 22,6 C 58 % 1007,6 hPa 0,0 l/m 5,4 km/h (1 Bft) O-NO 67 13,9 C 22,6 C
29.04.2012 12:56 22,8 C 58 % 1007,5 hPa 0,0 l/m 14,8 km/h (3 Bft) O 90 14,1 C 22,8 C
29.04.2012 13:01 22,9 C 57 % 1007,4 hPa 0,0 l/m 6,1 km/h (2 Bft) O-NO 67 13,9 C 22,9 C
29.04.2012 13:06 23,1 C 57 % 1007,5 hPa 0,0 l/m 5,0 km/h (1 Bft) O-SO 112 14,1 C 23,1 C
29.04.2012 13:11 23,3 C 57 % 1007,4 hPa 0,0 l/m 5,0 km/h (1 Bft) O 90 14,3 C 23,3 C
29.04.2012 13:16 23,5 C 56 % 1007,4 hPa 0,0 l/m 7,2 km/h (2 Bft) O-NO 67 14,2 C 23,5 C
29.04.2012 13:21 23,5 C 56 % 1007,5 hPa 0,0 l/m 0,0 km/h (0 Bft) O-SO 112 14,2 C 23,5 C
29.04.2012 13:26 23,6 C 57 % 1007,6 hPa 0,0 l/m 9,7 km/h (2 Bft) O-NO 67 14,6 C 23,6 C
29.04.2012 13:31 23,6 C 56 % 1007,5 hPa 0,0 l/m 3,6 km/h (1 Bft) O-NO 67 14,3 C 23,6 C
29.04.2012 13:36 23,7 C 56 % 1007,4 hPa 0,0 l/m 10,1 km/h (2 Bft) O-SO 112 14,4 C 23,7 C
29.04.2012 13:41 23,9 C 55 % 1007,4 hPa 0,0 l/m 4,3 km/h (1 Bft) SO 135 14,3 C 23,9 C
29.04.2012 13:46 24,3 C 55 % 1007,3 hPa 0,0 l/m 6,1 km/h (2 Bft) O 90 14,7 C 24,3 C
29.04.2012 13:51 24,4 C 54 % 1007,3 hPa 0,0 l/m 3,6 km/h (1 Bft) O 90 14,5 C 24,4 C
29.04.2012 13:56 24,7 C 53 % 1007,3 hPa 0,0 l/m 13,7 km/h (3 Bft) O-NO 67 14,5 C 24,7 C
29.04.2012 14:01 24,8 C 51 % 1007,2 hPa 0,0 l/m 8,6 km/h (2 Bft) O-SO 112 14,0 C 24,8 C
29.04.2012 14:06 24,9 C 50 % 1007,1 hPa 0,0 l/m 15,1 km/h (3 Bft) O-SO 112 13,7 C 24,9 C
29.04.2012 14:11 24,9 C 50 % 1007,0 hPa 0,0 l/m 12,2 km/h (2 Bft) O 90 13,7 C 24,9 C
29.04.2012 14:16 24,8 C 50 % 1007,0 hPa 0,0 l/m 5,4 km/h (1 Bft) O 90 13,7 C 24,8 C
29.04.2012 14:21 24,8 C 51 % 1007,2 hPa 0,0 l/m 6,1 km/h (2 Bft) O-SO 112 14,0 C 24,8 C
29.04.2012 14:26 24,7 C 51 % 1007,1 hPa 0,0 l/m 16,9 km/h (3 Bft) O 90 13,9 C 24,7 C
29.04.2012 14:31 24,8 C 51 % 1007,0 hPa 0,0 l/m 6,5 km/h (2 Bft) SO 135 14,0 C 24,8 C
29.04.2012 14:36 24,9 C 51 % 1007,0 hPa 0,0 l/m 9,4 km/h (2 Bft) O-SO 112 14,1 C 24,9 C
29.04.2012 14:41 25,2 C 50 % 1007,0 hPa 0,0 l/m 16,9 km/h (3 Bft) O-SO 112 14,0 C 25,2 C
29.04.2012 14:46 25,4 C 50 % 1006,9 hPa 0,0 l/m 6,8 km/h (2 Bft) O-NO 67 14,2 C 25,4 C
29.04.2012 14:51 25,6 C 48 % 1007,2 hPa 0,0 l/m 6,5 km/h (2 Bft) O-NO 67 13,8 C 25,6 C
29.04.2012 14:56 25,6 C 46 % 1007,1 hPa 0,0 l/m 11,2 km/h (2 Bft) O 90 13,1 C 25,6 C
29.04.2012 15:01 25,5 C 48 % 1007,0 hPa 0,0 l/m 12,6 km/h (3 Bft) O 90 13,7 C 25,5 C
29.04.2012 15:06 25,6 C 48 % 1006,9 hPa 0,0 l/m 4,7 km/h (1 Bft) O 90 13,8 C 25,6 C
29.04.2012 15:11 25,6 C 48 % 1007,0 hPa 0,0 l/m 3,6 km/h (1 Bft) SO 135 13,8 C 25,6 C
29.04.2012 15:16 25,6 C 48 % 1006,9 hPa 0,0 l/m 11,9 km/h (2 Bft) SO 135 13,8 C 25,6 C
29.04.2012 15:21 25,5 C 48 % 1006,9 hPa 0,0 l/m 6,5 km/h (2 Bft) O-SO 112 13,7 C 25,5 C
29.04.2012 15:26 25,4 C 49 % 1007,0 hPa 0,0 l/m 9,7 km/h (2 Bft) O-SO 112 13,9 C 25,4 C
29.04.2012 15:31 25,2 C 49 % 1006,9 hPa 0,0 l/m 7,6 km/h (2 Bft) O-SO 112 13,7 C 25,2 C
29.04.2012 15:36 25,1 C 51 % 1006,9 hPa 0,0 l/m 13,7 km/h (3 Bft) O-SO 112 14,2 C 25,1 C
29.04.2012 15:41 24,9 C 51 % 1006,9 hPa 0,0 l/m 11,2 km/h (2 Bft) O 90 14,1 C 24,9 C
29.04.2012 15:46 24,9 C 51 % 1006,8 hPa 0,0 l/m 3,6 km/h (1 Bft) O-SO 112 14,1 C 24,9 C
29.04.2012 15:51 24,9 C 51 % 1006,9 hPa 0,0 l/m 12,2 km/h (2 Bft) O 90 14,1 C 24,9 C
29.04.2012 15:56 24,9 C 51 % 1006,8 hPa 0,0 l/m 7,6 km/h (2 Bft) O 90 14,1 C 24,9 C
29.04.2012 16:01 24,8 C 52 % 1006,8 hPa 0,0 l/m 7,6 km/h (2 Bft) O-SO 112 14,3 C 24,8 C
29.04.2012 16:06 24,8 C 52 % 1006,8 hPa 0,0 l/m 2,9 km/h (1 Bft) O-SO 112 14,3 C 24,8 C
29.04.2012 16:11 24,6 C 52 % 1006,9 hPa 0,0 l/m 1,4 km/h (1 Bft) O-SO 112 14,1 C 24,6 C
29.04.2012 16:16 24,7 C 53 % 1006,8 hPa 0,0 l/m 5,0 km/h (1 Bft) O 90 14,5 C 24,7 C
29.04.2012 16:21 24,7 C 53 % 1006,9 hPa 0,0 l/m 5,0 km/h (1 Bft) O 90 14,5 C 24,7 C
29.04.2012 16:26 24,8 C 53 % 1006,9 hPa 0,0 l/m 5,0 km/h (1 Bft) O-SO 112 14,6 C 24,8 C
29.04.2012 16:31 24,6 C 54 % 1006,9 hPa 0,0 l/m 3,2 km/h (1 Bft) O-SO 112 14,7 C 24,6 C
29.04.2012 16:36 24,5 C 54 % 1006,9 hPa 0,0 l/m 6,5 km/h (2 Bft) O-SO 112 14,6 C 24,5 C
29.04.2012 16:41 24,5 C 54 % 1006,9 hPa 0,0 l/m 3,2 km/h (1 Bft) O-SO 112 14,6 C 24,5 C
29.04.2012 16:46 24,4 C 55 % 1006,9 hPa 0,0 l/m 3,2 km/h (1 Bft) O-NO 67 14,8 C 24,4 C
29.04.2012 16:51 24,3 C 55 % 1006,8 hPa 0,0 l/m 1,8 km/h (1 Bft) O-NO 67 14,7 C 24,3 C
29.04.2012 16:56 24,2 C 55 % 1006,7 hPa 0,0 l/m 3,6 km/h (1 Bft) O-SO 112 14,6 C 24,2 C
29.04.2012 17:01 24,1 C 55 % 1006,5 hPa 0,0 l/m 7,6 km/h (2 Bft) O-NO 67 14,5 C 24,1 C
29.04.2012 17:06 24,0 C 55 % 1006,4 hPa 0,0 l/m 3,2 km/h (1 Bft) SO 135 14,4 C 24,0 C
29.04.2012 17:11 23,9 C 55 % 1006,3 hPa 0,0 l/m 8,3 km/h (2 Bft) O 90 14,3 C 23,9 C
29.04.2012 17:16 23,9 C 55 % 1006,5 hPa 0,0 l/m 8,3 km/h (2 Bft) O-NO 67 14,3 C 23,9 C
29.04.2012 17:21 23,9 C 55 % 1006,8 hPa 0,0 l/m 5,0 km/h (1 Bft) O-SO 112 14,3 C 23,9 C
29.04.2012 17:26 24,1 C 55 % 1006,9 hPa 0,0 l/m 3,2 km/h (1 Bft) O-SO 112 14,5 C 24,1 C
29.04.2012 17:31 24,4 C 56 % 1006,9 hPa 0,0 l/m 4,3 km/h (1 Bft) O 90 15,0 C 24,4 C
29.04.2012 17:36 24,6 C 56 % 1006,9 hPa 0,0 l/m 8,6 km/h (2 Bft) O-NO 67 15,2 C 24,6 C
29.04.2012 17:41 24,7 C 56 % 1007,0 hPa 0,0 l/m 6,5 km/h (2 Bft) O-SO 112 15,3 C 24,7 C
29.04.2012 17:46 24,8 C 56 % 1007,0 hPa 0,0 l/m 4,0 km/h (1 Bft) O-NO 67 15,4 C 24,8 C
29.04.2012 17:51 24,7 C 56 % 1007,1 hPa 0,0 l/m 2,5 km/h (1 Bft) O-SO 112 15,3 C 24,7 C
29.04.2012 17:56 24,8 C 56 % 1007,1 hPa 0,0 l/m 2,9 km/h (1 Bft) O 90 15,4 C 24,8 C
29.04.2012 18:01 24,8 C 56 % 1007,2 hPa 0,0 l/m 2,9 km/h (1 Bft) O 90 15,4 C 24,8 C
29.04.2012 18:06 24,9 C 56 % 1007,2 hPa 0,0 l/m 4,7 km/h (1 Bft) O 90 15,5 C 24,9 C
29.04.2012 18:11 24,9 C 55 % 1007,1 hPa 0,0 l/m 4,7 km/h (1 Bft) O-NO 67 15,2 C 24,9 C
29.04.2012 18:16 24,9 C 55 % 1007,1 hPa 0,0 l/m 8,3 km/h (2 Bft) O 90 15,2 C 24,9 C
29.04.2012 18:21 24,8 C 55 % 1007,1 hPa 0,0 l/m 5,8 km/h (2 Bft) O 90 15,1 C 24,8 C
29.04.2012 18:26 24,7 C 56 % 1007,0 hPa 0,0 l/m 2,9 km/h (1 Bft) O 90 15,3 C 24,7 C
29.04.2012 18:31 24,6 C 56 % 1007,1 hPa 0,0 l/m 4,3 km/h (1 Bft) O 90 15,2 C 24,6 C
29.04.2012 18:36 24,5 C 57 % 1007,2 hPa 0,0 l/m 3,2 km/h (1 Bft) O-SO 112 15,4 C 24,5 C
29.04.2012 18:41 24,3 C 57 % 1007,1 hPa 0,0 l/m 2,9 km/h (1 Bft) O 90 15,2 C 24,3 C
29.04.2012 18:46 24,2 C 57 % 1007,1 hPa 0,0 l/m 4,7 km/h (1 Bft) O 90 15,1 C 24,2 C
29.04.2012 18:51 24,1 C 58 % 1007,0 hPa 0,0 l/m 3,2 km/h (1 Bft) O-NO 67 15,3 C 24,1 C
29.04.2012 18:56 24,1 C 57 % 1007,1 hPa 0,0 l/m 8,6 km/h (2 Bft) O-NO 67 15,0 C 24,1 C
29.04.2012 19:01 24,1 C 58 % 1007,0 hPa 0,0 l/m 1,8 km/h (1 Bft) O-SO 112 15,3 C 24,1 C
29.04.2012 19:06 24,0 C 58 % 1007,1 hPa 0,0 l/m 2,2 km/h (1 Bft) O 90 15,2 C 24,0 C
29.04.2012 19:11 23,9 C 59 % 1007,0 hPa 0,0 l/m 6,5 km/h (2 Bft) O-SO 112 15,4 C 23,9 C
29.04.2012 19:16 23,8 C 59 % 1007,1 hPa 0,0 l/m 2,9 km/h (1 Bft) O 90 15,3 C 23,8 C
29.04.2012 19:21 23,7 C 60 % 1007,1 hPa 0,0 l/m 3,6 km/h (1 Bft) O-NO 67 15,5 C 23,7 C
29.04.2012 19:26 23,5 C 61 % 1007,0 hPa 0,0 l/m 5,0 km/h (1 Bft) O-NO 67 15,5 C 23,5 C
29.04.2012 19:31 23,4 C 62 % 1007,0 hPa 0,0 l/m 6,5 km/h (2 Bft) NO 45 15,7 C 23,4 C
29.04.2012 19:36 23,3 C 62 % 1007,1 hPa 0,0 l/m 0,0 km/h (0 Bft) O-SO 112 15,6 C 23,3 C
29.04.2012 19:41 23,2 C 62 % 1007,3 hPa 0,0 l/m 1,4 km/h (1 Bft) O-NO 67 15,5 C 23,2 C
29.04.2012 19:46 23,1 C 63 % 1007,4 hPa 0,0 l/m 1,8 km/h (1 Bft) O-NO 67 15,7 C 23,1 C
29.04.2012 19:51 23,0 C 63 % 1007,5 hPa 0,0 l/m 4,7 km/h (1 Bft) O 90 15,6 C 23,0 C
29.04.2012 19:56 22,9 C 64 % 1007,4 hPa 0,0 l/m 1,1 km/h (1 Bft) NO 45 15,7 C 22,9 C
29.04.2012 20:01 22,8 C 64 % 1007,4 hPa 0,0 l/m 1,1 km/h (1 Bft) N 360 15,6 C 22,8 C
29.04.2012 20:06 22,7 C 64 % 1007,6 hPa 0,0 l/m 4,7 km/h (1 Bft) NW 315 15,5 C 22,7 C
29.04.2012 20:11 22,5 C 64 % 1007,7 hPa 0,0 l/m 4,0 km/h (1 Bft) W-NW 292 15,3 C 22,5 C
29.04.2012 20:16 22,2 C 65 % 1007,9 hPa 0,0 l/m 0,0 km/h (0 Bft) N 360 15,3 C 22,2 C
29.04.2012 20:21 21,8 C 66 % 1007,9 hPa 0,0 l/m 0,0 km/h (0 Bft) N 360 15,2 C 21,8 C
29.04.2012 20:26 21,3 C 67 % 1007,9 hPa 0,0 l/m 1,4 km/h (1 Bft) N-NW 337 14,9 C 21,3 C
29.04.2012 20:31 21,1 C 67 % 1007,9 hPa 0,0 l/m 3,2 km/h (1 Bft) NO 45 14,7 C 21,1 C
29.04.2012 20:36 20,9 C 68 % 1008,0 hPa 0,0 l/m 3,2 km/h (1 Bft) NO 45 14,8 C 20,9 C
29.04.2012 20:41 20,7 C 69 % 1008,1 hPa 0,0 l/m 0,0 km/h (0 Bft) N-NO 22 14,8 C 20,7 C
29.04.2012 20:46 20,5 C 69 % 1008,1 hPa 0,0 l/m 2,9 km/h (1 Bft) O-NO 67 14,6 C 20,5 C
29.04.2012 20:51 20,3 C 70 % 1008,2 hPa 0,0 l/m 5,4 km/h (1 Bft) NO 45 14,6 C 20,3 C
29.04.2012 20:56 20,3 C 69 % 1008,8 hPa 0,0 l/m 19,1 km/h (3 Bft) W 270 14,4 C 20,3 C
29.04.2012 21:01 19,9 C 69 % 1009,0 hPa 0,0 l/m 16,9 km/h (3 Bft) NW 315 14,0 C 19,9 C
29.04.2012 21:06 19,6 C 69 % 1009,2 hPa 0,0 l/m 7,9 km/h (2 Bft) NW 315 13,8 C 19,6 C
29.04.2012 21:11 19,3 C 69 % 1009,5 hPa 0,0 l/m 17,6 km/h (3 Bft) W 270 13,5 C 19,3 C
29.04.2012 21:16 19,0 C 70 % 1009,8 hPa 0,0 l/m 17,3 km/h (3 Bft) W-NW 292 13,4 C 19,0 C
29.04.2012 21:21 18,8 C 70 % 1009,9 hPa 0,0 l/m 10,8 km/h (2 Bft) W 270 13,2 C 18,8 C
29.04.2012 21:26 18,6 C 71 % 1009,6 hPa 0,0 l/m 16,9 km/h (3 Bft) N-NW 337 13,2 C 18,6 C
29.04.2012 21:31 18,2 C 71 % 1009,6 hPa 0,0 l/m 12,2 km/h (2 Bft) N 360 12,9 C 18,2 C
29.04.2012 21:36 18,1 C 72 % 1009,8 hPa 0,0 l/m 4,7 km/h (1 Bft) O-NO 67 13,0 C 18,1 C
29.04.2012 21:41 17,9 C 72 % 1009,9 hPa 0,0 l/m 2,9 km/h (1 Bft) O-NO 67 12,8 C 17,9 C
29.04.2012 21:46 17,8 C 72 % 1010,1 hPa 0,0 l/m 5,4 km/h (1 Bft) O-NO 67 12,7 C 17,8 C
29.04.2012 21:51 17,6 C 73 % 1010,2 hPa 0,0 l/m 6,5 km/h (2 Bft) N 360 12,7 C 17,6 C
29.04.2012 21:56 17,4 C 73 % 1010,1 hPa 0,0 l/m 0,0 km/h (0 Bft) N-NW 337 12,5 C 17,4 C
29.04.2012 22:01 17,4 C 73 % 1010,4 hPa 0,0 l/m 6,1 km/h (2 Bft) W 270 12,5 C 17,4 C
29.04.2012 22:06 17,4 C 73 % 1010,6 hPa 0,0 l/m 3,6 km/h (1 Bft) NW 315 12,5 C 17,4 C
29.04.2012 22:11 17,4 C 72 % 1010,7 hPa 0,0 l/m 1,1 km/h (1 Bft) N-NO 22 12,3 C 17,4 C
29.04.2012 22:16 17,3 C 73 % 1010,8 hPa 0,0 l/m 0,0 km/h (0 Bft) N-NW 337 12,4 C 17,3 C
29.04.2012 22:21 17,1 C 73 % 1010,7 hPa 0,0 l/m 0,0 km/h (0 Bft) NW 315 12,2 C 17,1 C
29.04.2012 22:26 17,0 C 73 % 1010,7 hPa 0,0 l/m 1,1 km/h (1 Bft) NW 315 12,1 C 17,0 C
29.04.2012 22:31 17,1 C 73 % 1010,8 hPa 0,0 l/m 1,1 km/h (1 Bft) N-NW 337 12,2 C 17,1 C
29.04.2012 22:36 17,0 C 74 % 1010,9 hPa 0,0 l/m 0,0 km/h (0 Bft) W-NW 292 12,3 C 17,0 C
29.04.2012 22:41 17,0 C 73 % 1011,1 hPa 0,0 l/m 0,0 km/h (0 Bft) W-NW 292 12,1 C 17,0 C
29.04.2012 22:46 17,0 C 73 % 1011,1 hPa 0,0 l/m 0,0 km/h (0 Bft) W-NW 292 12,1 C 17,0 C
29.04.2012 22:51 17,1 C 73 % 1011,1 hPa 0,0 l/m 0,0 km/h (0 Bft) W 270 12,2 C 17,1 C
29.04.2012 22:56 17,1 C 73 % 1011,2 hPa 0,0 l/m 0,0 km/h (0 Bft) NW 315 12,2 C 17,1 C
29.04.2012 23:01 17,0 C 73 % 1011,4 hPa 0,0 l/m 1,8 km/h (1 Bft) W-NW 292 12,1 C 17,0 C
29.04.2012 23:06 16,8 C 73 % 1011,4 hPa 0,0 l/m 0,0 km/h (0 Bft) N 360 11,9 C 16,8 C
29.04.2012 23:11 16,4 C 74 % 1011,4 hPa 0,0 l/m 5,8 km/h (2 Bft) NW 315 11,8 C 16,4 C
29.04.2012 23:16 16,2 C 75 % 1011,4 hPa 0,0 l/m 0,0 km/h (0 Bft) W 270 11,8 C 16,2 C
29.04.2012 23:21 16,1 C 75 % 1011,4 hPa 0,0 l/m 4,3 km/h (1 Bft) W-NW 292 11,7 C 16,1 C
29.04.2012 23:26 16,1 C 75 % 1011,4 hPa 0,0 l/m 3,2 km/h (1 Bft) N-NO 22 11,7 C 16,1 C
29.04.2012 23:31 15,9 C 76 % 1011,5 hPa 0,0 l/m 0,0 km/h (0 Bft) N 360 11,7 C 15,9 C
29.04.2012 23:36 15,6 C 76 % 1011,5 hPa 0,0 l/m 0,0 km/h (0 Bft) N 360 11,4 C 15,6 C
29.04.2012 23:41 15,6 C 76 % 1011,6 hPa 0,0 l/m 0,0 km/h (0 Bft) NW 315 11,4 C 15,6 C
29.04.2012 23:46 15,5 C 76 % 1011,7 hPa 0,0 l/m 2,2 km/h (1 Bft) W-NW 292 11,3 C 15,5 C
29.04.2012 23:51 15,6 C 76 % 1012,0 hPa 0,0 l/m 3,2 km/h (1 Bft) W-NW 292 11,4 C 15,6 C
29.04.2012 23:56 15,6 C 76 % 1011,9 hPa 0,0 l/m 0,0 km/h (0 Bft) NW 315 11,4 C 15,6 C
_ Min-Zeit 05:51 14:56 17:11 - 00:01 - - 05:51 05:51
Minimum _ 13,2 C 46 % 1006,3 hPa - 0,0 km/h (0 Bft) - - 9,1 C 13,2 C
_ Max-Zeit 14:51 05:36 00:01 00:01 09:36 - - 19:56 14:51
Maximum _ 25,6 C 76 % 1012,8 hPa 0,0 l/m 23,8 km/h
O-NO (4 Bft)
- - 15,7 C 25,6 C
Durchschnitt _ 19,1 C 65 % 1008,8 hPa #0,0 l/m 6,7 km/h (2 Bft) O - 12,3 C 19,1 C
(c) by David Heller